Time;durP1;ratioP1;P1;durP2;ratioP2;P2;SDS_P1;SDS_P2;PMS_P1;PMS_P2;Temp;Humidity;BMP_temperature;BMP_pressure;BME280_temperature;BME280_humidity;BME280_pressure;Samples;Min_cycle;Max_cycle;Signal;HPM_P1;HPM_P2
2021/03/05 00:01:17;;;;;;;22.85;15.35;;;;;;;7.64;69.12;97933.22;4923981;29;20021;-78
2021/03/05 00:03:43;;;;;;;23.27;15.43;;;;;;;7.74;69.08;97944.88;4915720;29;20028;-75
2021/03/05 00:06:09;;;;;;;;;;;;;;;7.76;68.88;97939.16;4916523;29;20059;-74
2021/03/05 00:08:34;;;;;;;24.85;14.15;;;;;;;7.71;69.06;97936.44;4915718;29;19922;-76
2021/03/05 00:10:59;;;;;;;28.98;15.98;;;;;;;7.73;69.40;97942.44;4916322;29;20083;-75
2021/03/05 00:13:25;;;;;;;24.58;15.30;;;;;;;7.69;69.42;97941.38;4916676;29;20569;-74
2021/03/05 00:15:51;;;;;;;25.38;15.65;;;;;;;7.68;69.27;97932.38;4916530;29;20082;-79
2021/03/05 00:18:17;;;;;;;25.00;15.20;;;;;;;7.75;69.45;97941.06;4916511;29;20063;-74
2021/03/05 00:20:46;;;;;;;27.80;15.32;;;;;;;7.73;69.21;97942.44;4916148;29;20111;-76
2021/03/05 00:23:12;;;;;;;22.77;14.63;;;;;;;7.75;69.60;97945.69;4916625;29;20553;-74
2021/03/05 00:25:37;;;;;;;32.40;16.60;;;;;;;7.78;69.48;97939.69;4916536;29;20032;-76
2021/03/05 00:28:03;;;;;;;;;;;;;;;7.82;69.43;97938.88;4899132;29;20730;-74
2021/03/05 00:30:29;;;;;;;29.35;15.98;;;;;;;7.82;69.44;97932.63;4915988;29;19922;-76
2021/03/05 00:32:55;;;;;;;32.17;15.57;;;;;;;7.77;69.63;97933.44;4916236;29;20028;-75
2021/03/05 00:35:20;;;;;;;27.33;15.93;;;;;;;7.82;69.53;97932.63;4916128;29;20024;-75
2021/03/05 00:37:46;;;;;;;24.73;14.13;;;;;;;7.75;69.75;97929.38;4916102;29;20087;-74
2021/03/05 00:40:15;;;;;;;30.20;17.23;;;;;;;7.81;69.56;97928.25;4916389;29;20032;-76
2021/03/05 00:42:42;;;;;;;21.70;14.13;;;;;;;7.77;69.76;97921.75;4917629;29;20059;-76
2021/03/05 00:45:09;;;;;;;31.80;15.38;;;;;;;7.75;69.95;97919.28;4920078;29;20032;-75
2021/03/05 00:47:35;;;;;;;25.33;15.75;;;;;;;7.78;69.97;97909.75;4900917;29;20524;-76
2021/03/05 00:50:01;;;;;;;25.92;16.40;;;;;;;7.70;70.07;97899.44;4915578;29;20033;-74
2021/03/05 00:52:27;;;;;;;25.83;15.35;;;;;;;7.71;70.19;97903.78;4915986;29;20493;-75
2021/03/05 00:54:52;;;;;;;29.42;17.10;;;;;;;7.69;70.61;97901.34;4917875;29;20032;-73
2021/03/05 00:57:17;;;;;;;30.05;16.30;;;;;;;7.66;70.39;97899.19;4918219;29;20493;-74
2021/03/05 00:59:43;;;;;;;26.83;16.17;;;;;;;7.67;70.36;97894.56;4918388;29;20028;-77
2021/03/05 01:02:08;;;;;;;;;;;;;;;7.63;70.47;97888.84;4919990;29;20056;-82
2021/03/05 01:04:33;;;;;;;22.63;13.30;;;;;;;7.63;70.50;97885.31;4920495;29;20002;-78
2021/03/05 01:06:59;;;;;;;;;;;;;;;7.63;70.29;97888.84;4920940;29;20496;-82
2021/03/05 01:09:24;;;;;;;23.23;15.25;;;;;;;7.63;70.32;97888.03;4920040;29;19973;-75
2021/03/05 01:11:50;;;;;;;;;;;;;;;7.67;70.21;97883.69;4919106;29;20036;-75
2021/03/05 01:14:15;;;;;;;27.17;14.00;;;;;;;7.64;70.19;97881.50;4917407;29;19915;-74
2021/03/05 01:16:40;;;;;;;27.85;16.70;;;;;;;7.65;70.22;97874.94;4918842;29;20055;-78
2021/03/05 01:19:07;;;;;;;;;;;;;;;7.68;70.29;97871.66;4923280;29;20063;-77
2021/03/05 01:21:33;;;;;;;26.77;15.63;;;;;;;7.60;70.48;97864.09;4922326;29;19911;-77
2021/03/05 01:23:58;;;;;;;25.88;15.88;;;;;;;7.52;70.83;97866.28;4920791;29;20032;-79
2021/03/05 01:26:24;;;;;;;;;;;;;;;7.58;70.78;97871.75;4921703;29;20736;-76
2021/03/05 01:28:49;;;;;;;24.77;14.93;;;;;;;7.54;70.69;97868.75;4918572;29;19924;-75
2021/03/05 01:31:15;;;;;;;24.52;15.25;;;;;;;7.45;71.09;97857.63;4918870;29;20040;-76
2021/03/05 01:33:41;;;;;;;23.77;15.02;;;;;;;7.42;71.11;97855.44;4918759;29;20017;-75
2021/03/05 01:36:07;;;;;;;28.20;15.88;;;;;;;7.41;71.21;97845.66;4902434;29;20038;-77
2021/03/05 01:38:33;;;;;;;23.63;15.40;;;;;;;7.48;70.97;97854.34;4918205;29;20036;-75
2021/03/05 01:40:59;;;;;;;23.58;15.10;;;;;;;7.51;70.92;97845.63;4918721;29;20103;-74
2021/03/05 01:43:26;;;;;;;;;;;;;;;7.53;70.82;97850.78;4919349;29;20040;-75
2021/03/05 01:45:51;;;;;;;23.60;14.95;;;;;;;7.47;71.03;97841.84;4918563;29;19931;-75
2021/03/05 01:48:17;;;;;;;;;;;;;;;7.47;70.81;97841.84;4919114;29;20032;-75
2021/03/05 01:50:46;;;;;;;21.85;13.57;;;;;;;7.47;70.95;97841.84;4918829;29;19903;-75
2021/03/05 01:53:11;;;;;;;24.33;14.80;;;;;;;7.46;71.24;97840.19;4919949;29;20745;-74
2021/03/05 01:55:37;;;;;;;26.50;14.50;;;;;;;7.48;70.81;97845.38;4921933;29;20043;-85
2021/03/05 01:58:02;;;;;;;23.42;14.55;;;;;;;7.44;71.10;97834.22;4922188;29;20030;-75
2021/03/05 02:00:35;;;;;;;28.25;16.05;;;;;;;7.38;71.25;97838.06;4901340;29;20083;-74
2021/03/05 02:03:01;;;;;;;24.10;15.20;;;;;;;7.42;71.27;97830.94;4918410;29;20061;-75
2021/03/05 02:05:26;;;;;;;25.70;15.13;;;;;;;7.40;70.92;97830.44;4901096;29;20127;-74
2021/03/05 02:07:51;;;;;;;24.55;14.80;;;;;;;7.43;70.88;97834.50;4918266;29;20028;-74
2021/03/05 02:10:17;;;;;;;25.17;14.18;;;;;;;7.44;70.73;97833.41;4918483;29;20024;-75
2021/03/05 02:12:43;;;;;;;26.98;15.02;;;;;;;7.42;71.04;97827.44;4929490;29;20040;-74
2021/03/05 02:15:09;;;;;;;22.70;14.32;;;;;;;7.39;71.01;97822.56;4927288;29;20100;-75
2021/03/05 02:18:03;;;;;;;29.08;15.13;;;;;;;7.33;71.30;97819.00;4910189;29;20398;-75
2021/03/05 02:20:37;;;;;;;24.05;14.82;;;;;;;7.37;71.18;97825.53;4917583;29;20043;-75
2021/03/05 02:23:47;;;;;;;24.80;14.48;;;;;;;7.37;71.09;97814.66;4899634;29;20508;-77
2021/03/05 02:26:52;;;;;;;22.67;15.00;;;;;;;7.33;71.18;97812.78;4882022;29;20098;-75
2021/03/05 02:29:42;;;;;;;25.25;15.73;;;;;;;7.21;71.42;97813.06;4897535;29;20032;-75
2021/03/05 02:32:19;;;;;;;22.08;12.93;;;;;;;7.15;71.60;97805.22;4898431;29;20073;-75
2021/03/05 02:34:46;;;;;;;;;;;;;;;7.20;71.62;97802.50;4915472;29;20469;-75
2021/03/05 02:37:13;;;;;;;26.75;15.60;;;;;;;7.14;71.83;97798.94;4917336;29;19915;-75
2021/03/05 02:39:57;;;;;;;22.55;15.05;;;;;;;7.14;71.65;97798.16;4917052;29;20028;-75
2021/03/05 02:42:57;;;;;;;25.05;14.35;;;;;;;7.09;72.09;97801.69;4900199;29;20521;-74
2021/03/05 02:45:26;;;;;;;24.38;12.52;;;;;;;7.07;71.72;97793.00;4917135;29;20028;-75
2021/03/05 02:47:55;;;;;;;23.25;14.75;;;;;;;7.13;71.75;97802.78;4917227;29;20060;-75
2021/03/05 02:50:25;;;;;;;25.95;14.50;;;;;;;7.18;71.42;97794.59;4917224;29;20076;-75
2021/03/05 02:52:53;;;;;;;25.48;14.30;;;;;;;7.20;71.14;97800.59;4917382;29;20076;-75
2021/03/05 02:55:21;;;;;;;23.60;14.02;;;;;;;7.46;70.30;97785.78;4917105;29;20036;-75
2021/03/05 02:57:49;;;;;;;20.13;13.55;;;;;;;7.30;70.61;97797.03;4916384;29;20039;-74
2021/03/05 03:00:16;;;;;;;21.92;13.65;;;;;;;7.22;70.81;97792.97;4904035;29;20041;-74
2021/03/05 03:02:43;;;;;;;23.70;12.45;;;;;;;7.21;71.07;97796.75;4918802;29;20038;-75
2021/03/05 03:05:13;;;;;;;26.52;14.25;;;;;;;7.16;71.11;97793.25;4899559;29;20032;-75
2021/03/05 03:07:39;;;;;;;23.55;13.95;;;;;;;7.17;71.12;97795.72;4916713;29;20054;-75
2021/03/05 03:10:07;;;;;;;23.13;14.20;;;;;;;7.16;71.29;97791.34;4916413;29;20028;-74
2021/03/05 03:12:34;;;;;;;19.90;13.55;;;;;;;7.15;71.23;97788.88;4916337;29;20035;-75
2021/03/05 03:15:01;;;;;;;29.38;15.02;;;;;;;7.09;71.27;97790.81;4916859;29;20115;-75
2021/03/05 03:17:28;;;;;;;23.10;13.48;;;;;;;7.08;71.12;97775.59;4906416;29;20035;-76
2021/03/05 03:19:54;;;;;;;24.42;13.52;;;;;;;7.12;70.73;97776.66;4898190;29;20477;-74
2021/03/05 03:22:21;;;;;;;25.55;14.70;;;;;;;7.12;70.99;97773.94;4897826;29;20124;-75
2021/03/05 03:24:46;;;;;;;25.63;13.70;;;;;;;7.20;70.12;97770.66;4898138;29;20044;-74
2021/03/05 03:27:12;;;;;;;21.70;13.88;;;;;;;7.26;69.77;97769.56;4898551;29;20405;-74
2021/03/05 03:29:37;;;;;;;23.10;14.65;;;;;;;7.25;69.98;97773.34;4898333;29;20045;-75
2021/03/05 03:32:04;;;;;;;;;;;;;;;7.27;69.65;97779.31;4899802;29;20418;-75
2021/03/05 03:34:29;;;;;;;;;;;;;;;7.32;69.49;97782.03;4898635;29;19983;-75
2021/03/05 03:36:55;;;;;;;;;;;;;;;7.41;69.16;97777.66;4897713;29;20384;-75
2021/03/05 03:39:22;;;;;;;;;;;;;;;7.44;69.14;97782.53;4898171;29;19963;-75
2021/03/05 03:41:48;;;;;;;;;;;;;;;7.45;69.07;97780.63;4881238;29;20018;-75
2021/03/05 03:44:13;;;;;;;;;;;;;;;7.40;69.48;97784.16;4881022;29;20001;-74
2021/03/05 03:46:48;;;;;;;;;;;;;;;7.34;69.68;97782.56;4898316;29;19915;-73
2021/03/05 03:49:33;;;;;;;;;;;;;;;7.31;70.12;97780.41;4914397;29;20020;-75
2021/03/05 03:52:00;;;;;;;;;;;;;;;7.33;69.99;97783.66;4920948;29;19915;-79
2021/03/05 03:54:26;;;;;;;;;;;;;;;7.29;70.13;97787.22;4919057;29;19950;-75
2021/03/05 03:56:53;;;;;;;;;;;;;;;7.21;70.69;97785.88;4916606;29;19950;-75
2021/03/05 03:59:19;;;;;;;;;;;;;;;7.17;70.92;97776.66;4916042;29;19926;-75
2021/03/05 04:01:45;;;;;;;;;;;;;;;7.03;71.65;97774.78;4915752;29;19915;-75
2021/03/05 04:04:11;;;;;;;;;;;;;;;6.96;71.74;97775.09;4915895;29;19969;-75
2021/03/05 04:06:36;;;;;;;;;;;;;;;6.94;72.20;97771.84;4910277;29;19963;-75
2021/03/05 04:09:03;;;;;;;;;;;;;;;6.86;72.55;97769.69;4916211;29;19915;-75
2021/03/05 04:11:28;;;;;;;;;;;;;;;6.98;72.62;97772.91;4916238;29;20460;-75
2021/03/05 04:13:53;;;;;;;;;;;;;;;6.95;72.61;97773.47;4915222;29;19960;-74
2021/03/05 04:16:19;;;;;;;;;;;;;;;6.89;72.77;97769.16;4928916;29;19919;-75
2021/03/05 04:18:45;;;;;;;;;;;;;;;6.87;72.68;97774.03;4934974;29;19914;-75
2021/03/05 04:21:13;;;;;;;;;;;;;;;6.84;73.02;97774.56;4935404;29;20375;-75
2021/03/05 04:23:39;;;;;;;;;;;;;;;6.93;72.61;97771.03;4935207;29;19926;-74
2021/03/05 04:26:04;;;;;;;;;;;;;;;6.88;72.98;97775.66;4935143;29;19914;-75
2021/03/05 04:28:29;;;;;;;;;;;;;;;6.88;72.79;97770.22;4935229;29;19918;-75
2021/03/05 04:30:55;;;;;;;;;;;;;;;6.89;72.76;97780.03;4935161;29;19915;-74
2021/03/05 04:33:20;;;;;;;;;;;;;;;6.88;72.97;97781.91;4927920;29;19930;-75
2021/03/05 04:35:45;;;;;;;;;;;;;;;6.90;73.07;97781.63;4915989;29;19919;-75
2021/03/05 04:38:11;;;;;;;;;;;;;;;6.87;73.20;97784.91;4897559;29;19943;-75
2021/03/05 04:40:36;;;;;;;;;;;;;;;6.79;73.45;97780.03;4914997;29;19915;-74
2021/03/05 04:43:01;;;;;;;;;;;;;;;6.78;73.47;97783.84;4915910;29;19983;-75
2021/03/05 04:45:26;;;;;;;;;;;;;;;6.84;73.16;97780.00;4917206;29;20308;-75
2021/03/05 04:47:52;;;;;;;;;;;;;;;6.80;73.35;97787.09;4915741;29;19962;-74
2021/03/05 04:50:17;;;;;;;;;;;;;;;6.83;73.11;97781.09;4915638;29;20293;-75
2021/03/05 04:52:42;;;;;;;;;;;;;;;6.88;73.08;97781.09;4914187;29;19915;-75
2021/03/05 04:55:08;;;;;;;;;;;;;;;6.83;73.07;97775.66;4915634;29;19911;-73
2021/03/05 04:57:33;;;;;;;;;;;;;;;6.87;72.89;97777.56;4915565;29;19964;-75
2021/03/05 04:59:58;;;;;;;;;;;;;;;6.90;73.02;97781.63;4899117;29;20266;-74
2021/03/05 05:02:23;;;;;;;;;;;;;;;6.97;72.70;97780.25;4915421;29;19966;-74
2021/03/05 05:04:49;;;;;;;;;;;;;;;6.98;72.31;97779.16;4916090;29;20375;-75
2021/03/05 05:07:14;;;;;;;;;;;;;;;6.97;72.53;97763.13;4915775;29;19962;-75
2021/03/05 05:09:39;;;;;;;;;;;;;;;6.92;72.63;97777.53;4915901;29;19923;-75
2021/03/05 05:12:05;;;;;;;;;;;;;;;6.96;72.56;97765.03;4915968;29;20009;-75
2021/03/05 05:14:30;;;;;;;;;;;;;;;7.02;72.16;97768.53;4916563;29;19915;-74
2021/03/05 05:16:55;;;;;;;;;;;;;;;7.04;72.07;97771.81;4918524;29;19929;-75
2021/03/05 05:19:20;;;;;;;;;;;;;;;6.97;72.42;97772.09;4918255;29;20017;-75
2021/03/05 05:21:46;;;;;;;;;;;;;;;6.96;72.27;97772.38;4915684;29;20340;-75
2021/03/05 05:24:11;;;;;;;;;;;;;;;6.94;72.41;97771.84;4920330;29;19914;-75
2021/03/05 05:26:36;;;;;;;;;;;;;;;7.01;72.44;97772.38;4903323;29;20010;-74
2021/03/05 05:29:01;;;;;;;;;;;;;;;7.02;72.15;97775.91;4924148;29;19919;-74
2021/03/05 05:31:27;;;;;;;;;;;;;;;7.07;72.04;97773.16;4925547;29;19911;-75
2021/03/05 05:33:52;;;;;;;;;;;;;;;7.03;72.39;97770.19;4923048;29;20311;-75
2021/03/05 05:36:17;;;;;;;;;;;;;;;6.92;72.43;97768.59;4905931;29;19918;-75
2021/03/05 05:38:42;;;;;;;;;;;;;;;6.95;72.73;97765.31;4925057;29;20348;-75
2021/03/05 05:41:08;;;;;;;;;;;;;;;6.85;72.82;97768.88;4924307;29;19919;-77
2021/03/05 05:43:35;;;;;;;;;;;;;;;6.73;73.46;97770.28;4917857;29;19943;-79
2021/03/05 05:46:05;;;;;;;;;;;;;;;6.56;73.52;97767.84;4923079;29;20288;-80
2021/03/05 05:48:30;;;;;;;;;;;;;;;6.44;72.57;97773.56;4921228;29;20014;-78
2021/03/05 05:50:57;;;;;;;;;;;;;;;6.18;72.30;97780.09;4921442;29;20375;-75
2021/03/05 05:53:22;;;;;;;;;;;;;;;5.95;72.34;97780.63;4905419;29;19945;-74
2021/03/05 05:55:47;;;;;;;;;;;;;;;5.82;72.60;97781.94;4923071;29;20288;-75
2021/03/05 05:58:15;;;;;;;;;;;;;;;5.77;72.80;97778.38;4906092;29;19918;-76
2021/03/05 06:00:41;;;;;;;;;;;;;;;5.70;72.32;97777.84;4923505;29;20380;-76
2021/03/05 06:03:07;;;;;;;;;;;;;;;5.65;72.44;97772.38;4905644;29;19967;-76
2021/03/05 06:05:32;;;;;;;;;;;;;;;5.59;72.34;97784.31;4908973;29;19922;-75
2021/03/05 06:07:58;;;;;;;;;;;;;;;5.64;72.52;97784.34;4927257;29;19923;-75
2021/03/05 06:10:23;;;;;;;;;;;;;;;5.79;71.72;97781.66;4922521;29;20923;-75
2021/03/05 06:12:49;;;;;;;;;;;;;;;5.81;71.58;97793.88;4927844;29;19921;-76
2021/03/05 06:15:16;;;;;;;;;;;;;;;5.91;71.15;97791.22;4925781;29;20349;-74
2021/03/05 06:17:41;;;;;;;;;;;;;;;5.95;70.56;97796.09;4923572;29;19946;-75
2021/03/05 06:20:07;;;;;;;;;;;;;;;5.97;70.53;97797.44;4926180;29;19957;-75
2021/03/05 06:22:32;;;;;;;;;;;;;;;6.08;70.09;97793.66;4928699;29;19919;-74
2021/03/05 06:24:57;;;;;;;;;;;;;;;6.06;69.79;97795.84;4925200;29;19927;-75
2021/03/05 06:27:27;;;;;;;;;;;;;;;6.22;69.14;97792.03;4927472;29;19919;-75
2021/03/05 06:29:52;;;;;;;;;;;;;;;6.34;68.22;97800.72;4936107;29;19914;-75
2021/03/05 06:32:18;;;;;;;;;;;;;;;6.41;66.90;97790.41;4936048;29;19919;-75
2021/03/05 06:34:48;;;;;;;;;;;;;;;6.53;67.15;97792.03;4918141;29;19919;-76
2021/03/05 06:37:14;;;;;;;;;;;;;;;6.66;67.05;97791.47;4934291;29;20001;-74
2021/03/05 06:39:39;;;;;;;;;;;;;;;7.02;65.61;97790.28;4933586;29;20006;-75
2021/03/05 06:42:12;;;;;;;;;;;;;;;7.32;64.06;97790.22;4947819;29;20565;-75
2021/03/05 06:44:39;;;;;;;;;;;;;;;7.27;63.35;97784.75;4933289;29;19941;-75
2021/03/05 06:47:12;;;;;;;;;;;;;;;7.43;63.01;97780.06;4933015;29;20017;-75
2021/03/05 06:49:37;;;;;;;;;;;;;;;7.47;62.44;97781.97;4933288;29;19918;-75
2021/03/05 06:52:03;;;;;;;;;;;;;;;7.68;62.79;97784.56;4934810;29;19914;-75
2021/03/05 06:54:30;;;;;;;;;;;;;;;7.82;62.08;97780.16;4935696;29;20350;-76
2021/03/05 06:56:55;;;;;;;;;;;;;;;7.91;61.73;97776.53;4935783;29;19933;-75
2021/03/05 06:59:24;;;;;;;;;;;;;;;7.80;61.86;97779.63;4935821;29;19914;-74
2021/03/05 07:01:52;;;;;;;;;;;;;;;7.90;61.69;97780.34;4929296;29;19925;-75
2021/03/05 07:04:40;;;;;;;;;;;;;;;7.99;61.50;97778.66;4915552;29;19907;-74
2021/03/05 07:07:05;;;;;;;;;;;;;;;7.92;61.49;97788.25;4910404;29;19929;-74
2021/03/05 07:09:35;;;;;;;;;;;;;;;7.99;61.55;97778.66;4916953;29;19970;-75
2021/03/05 07:12:05;;;;;;;;;;;;;;;8.24;60.97;97774.94;4910357;29;19980;-76
2021/03/05 07:14:31;;;;;;;;;;;;;;;8.28;60.99;97781.47;4909410;29;20384;-76
2021/03/05 07:16:57;;;;;;;;;;;;;;;8.24;60.70;97782.31;4915811;29;19923;-75
2021/03/05 07:19:24;;;;;;;;;;;;;;;8.28;60.76;97778.75;4916619;29;19915;-75
2021/03/05 07:21:50;;;;;;;;;;;;;;;8.39;60.27;97782.22;4916455;29;19946;-76
2021/03/05 07:24:17;;;;;;;;;;;;;;;8.60;60.10;97783.66;4917132;29;19975;-76
2021/03/05 07:26:43;;;;;;;;;;;;;;;8.69;59.85;97792.03;4916390;29;19919;-76
2021/03/05 07:29:16;;;;;;;;;;;;;;;9.23;58.42;97794.47;4916300;29;19919;-75
2021/03/05 07:31:42;;;;;;;;;;;;;;;9.38;57.60;97806.00;4900886;29;19927;-76
2021/03/05 07:34:10;;;;;;;;;;;;;;;9.71;56.52;97800.69;4923151;29;19962;-76
2021/03/05 07:36:37;;;;;;;;;;;;;;;9.33;57.08;97797.91;4919909;29;19915;-74
2021/03/05 07:39:03;;;;;;;;;;;;;;;9.27;57.00;97798.25;4916615;29;19921;-76
2021/03/05 07:41:29;;;;;;;;;;;;;;;9.39;57.10;97799.47;4916918;29;19915;-75
2021/03/05 07:43:54;;;;;;;;;;;;;;;9.42;58.04;97793.41;4921034;29;19922;-81
2021/03/05 07:46:20;;;;;;;;;;;;;;;9.67;57.27;97801.28;4919522;29;19923;-76
2021/03/05 07:48:49;;;;;;;;;;;;;;;10.04;56.52;97802.41;4916135;29;19971;-75
2021/03/05 07:51:15;;;;;;;;;;;;;;;10.76;54.38;97801.00;4915533;29;19926;-74
2021/03/05 07:53:53;;;;;;;;;;;;;;;11.31;52.20;97801.88;4915711;29;19919;-76
2021/03/05 07:56:38;;;;;;;;;;;;;;;11.94;50.42;97804.72;4915910;29;19966;-74
2021/03/05 07:59:03;;;;;;;;;;;;;;;12.29;49.59;97803.91;4915370;29;19921;-77
2021/03/05 08:01:47;;;;;;;;;;;;;;;12.62;48.08;97804.50;4915415;29;20017;-75
2021/03/05 08:04:12;;;;;;;;;;;;;;;13.06;46.80;97800.09;4915571;29;19923;-76
2021/03/05 08:06:37;;;;;;;;;;;;;;;12.76;46.90;97807.97;4914958;29;19950;-76
2021/03/05 08:09:09;;;;;;;;;;;;;;;13.17;46.37;97805.03;4915243;29;19922;-76
2021/03/05 08:11:39;;;;;;;;;;;;;;;13.40;46.05;97805.78;4915225;29;19918;-75
2021/03/05 08:14:17;;;;;;;;;;;;;;;13.70;45.40;97807.66;4915395;29;19926;-75
2021/03/05 08:16:42;;;;;;;;;;;;;;;13.78;44.62;97806.06;4914956;29;19926;-75
2021/03/05 08:19:07;;;;;;;;;;;;;;;13.44;45.12;97795.75;4915150;29;19923;-76
2021/03/05 08:21:51;;;;;;;;;;;;;;;14.33;43.25;97800.81;4914935;29;19915;-78
2021/03/05 08:24:27;;;;;;;;;;;;;;;14.01;44.08;97798.50;4915550;29;20055;-74
2021/03/05 08:26:59;;;;;;;;;;;;;;;14.52;43.34;97800.50;4896911;29;19919;-76
2021/03/05 08:29:43;;;;;;;;;;;;;;;14.65;43.41;97792.09;4898076;29;20006;-75
2021/03/05 08:32:27;;;;;;;;;;;;;;;14.51;44.23;97796.13;4915177;29;20411;-76
2021/03/05 08:34:52;;;;;;;;;;;;;;;14.43;44.35;97797.75;4914760;29;20292;-76
2021/03/05 08:37:30;;;;;;;;;;;;;;;14.08;45.18;97801.59;4897579;29;19918;-76
2021/03/05 08:40:14;;;;;;;;;;;;;;;14.23;44.78;97801.94;4914735;29;20374;-76
2021/03/05 08:42:43;;;;;;;;;;;;;;;14.44;44.36;97802.09;4914884;29;20342;-74
2021/03/05 08:45:12;;;;;;;;;;;;;;;14.57;44.35;97801.16;4914780;29;20018;-74
2021/03/05 08:47:39;;;;;;;;;;;;;;;15.53;42.37;97808.91;4914580;29;19971;-74
2021/03/05 08:50:05;;;;;;;;;;;;;;;15.37;42.95;97807.78;4929500;29;20358;-77
2021/03/05 08:52:31;;;;;;;;;;;;;;;14.94;43.02;97800.44;4915008;29;20010;-75
2021/03/05 08:54:56;;;;;;;;;;;;;;;15.07;43.11;97803.34;4897961;29;20018;-74
2021/03/05 08:57:22;;;;;;;;;;;;;;;15.20;43.04;97800.38;4897526;29;20608;-74
2021/03/05 08:59:50;;;;;;;;;;;;;;;13.93;45.65;97786.38;4897703;29;19978;-75
2021/03/05 09:02:15;;;;;;;;;;;;;;;13.54;47.04;97795.47;4914505;29;19915;-74
2021/03/05 09:04:41;;;;;;;;;;;;;;;14.06;46.67;97795.59;4914850;29;19923;-74
2021/03/05 09:07:06;;;;;;;;;;;;;;;14.36;45.79;97786.41;4914185;29;20411;-75
2021/03/05 09:09:32;;;;;;;;;;;;;;;15.10;43.76;97791.69;4914540;29;20287;-74
2021/03/05 09:12:04;;;;;;;;;;;;;;;14.88;44.45;97799.00;4914881;29;20008;-74
2021/03/05 09:14:30;;;;;;;;;;;;;;;13.79;47.01;97793.91;4914645;29;19915;-73
2021/03/05 09:16:57;;;;;;;;;;;;;;;13.38;47.95;97792.34;4914267;29;20257;-72
2021/03/05 09:19:37;;;;;;;;;;;;;;;12.87;50.00;97781.09;4914562;29;19975;-75
2021/03/05 09:22:06;;;;;;;;;;;;;;;14.56;46.71;97783.03;4914532;29;20331;-74
2021/03/05 09:24:50;;;;;;;;;;;;;;;15.88;43.39;97782.72;4915224;29;19926;-74
2021/03/05 09:27:28;;;;;;;;;;;;;;;15.92;42.33;97780.13;4914233;29;20358;-75
2021/03/05 09:29:54;;;;;;;;;;;;;;;15.08;44.23;97777.41;4915016;29;19915;-75
2021/03/05 09:32:20;;;;;;;;;;;;;;;14.99;44.93;97781.00;4916724;29;19918;-74
2021/03/05 09:34:52;;;;;;;;;;;;;;;15.86;43.40;97782.28;4921265;29;19919;-75
2021/03/05 09:37:19;;;;;;;;;;;;;;;16.43;41.93;97779.75;4916689;29;19919;-73
2021/03/05 09:39:45;;;;;;;;;;;;;;;17.52;39.83;97776.53;4918374;29;19923;-75
2021/03/05 09:42:10;;;;;;;;;;;;;;;18.06;38.51;97782.66;4918079;29;19947;-73
2021/03/05 09:44:45;;;;;;;;;;;;;;;19.04;36.74;97776.47;4918153;29;19961;-73
2021/03/05 09:47:11;;;;;;;;;;;;;;;19.48;35.83;97780.03;4918267;29;19915;-74
2021/03/05 09:49:36;;;;;;;;;;;;;;;19.07;36.23;97774.94;4918155;29;19974;-74
2021/03/05 09:52:02;;;;;;;;;;;;;;;18.60;37.01;97778.41;4917743;29;19962;-74
2021/03/05 09:54:34;;;;;;;;;;;;;;;20.25;34.68;97778.31;4901173;29;19927;-74
2021/03/05 09:56:59;;;;;;;;;;;;;;;21.06;33.17;97782.03;4904268;29;19911;-75
2021/03/05 09:59:38;;;;;;;;;;;;;;;20.25;34.10;97781.09;4904595;29;20288;-74
2021/03/05 10:02:03;;;;;;;;;;;;;;;20.94;32.89;97782.19;4917597;29;19922;-75
2021/03/05 10:04:29;;;;;;;;;;;;;;;20.26;33.54;97790.28;4914539;29;19908;-74
2021/03/05 10:06:54;;;;;;;;;;;;;;;19.82;33.83;97792.38;4910829;29;20014;-73
2021/03/05 10:09:20;;;;;;;;;;;;;;;19.55;34.47;97796.03;4916771;29;19922;-73
2021/03/05 10:11:45;;;;;;;;;;;;;;;19.66;34.23;97786.84;4919736;29;19915;-73
2021/03/05 10:14:24;;;;;;;;;;;;;;;19.52;34.16;97791.19;4917869;29;20299;-73
2021/03/05 10:16:50;;;;;;;;;;;;;;;19.65;34.36;97801.06;4933945;29;19969;-72
2021/03/05 10:19:21;;;;;;;;;;;;;;;19.38;34.90;97796.38;4936172;29;19919;-74
2021/03/05 10:21:54;;;;;;;;;;;;;;;19.04;35.45;97795.06;4950853;29;19914;-74
2021/03/05 10:24:26;;;;;;;;;;;;;;;19.77;34.13;97792.63;4936558;29;20290;-73
2021/03/05 10:29:45;;;;;;;;;;;;;;;20.08;33.62;97800.94;4936196;29;19982;-75
2021/03/05 10:32:20;;;;;;;;;;;;;;;20.09;33.33;97796.19;4936131;29;20379;-74
2021/03/05 10:34:46;;;;;;;;;;;;;;;19.91;34.53;97798.53;4919136;29;19903;-74
2021/03/05 10:37:12;;;;;;;;;;;;;;;19.72;34.78;97790.94;4918674;29;20295;-74
2021/03/05 10:39:37;;;;;;;;;;;;;;;20.32;33.73;97797.16;4936122;29;20427;-76
2021/03/05 10:42:03;;;;;;;;;;;;;;;20.47;33.27;97792.72;4935769;29;19937;-73
2021/03/05 10:44:29;;;;;;;;;;;;;;;20.16;32.55;97804.69;4936097;29;20073;-73
2021/03/05 10:46:59;;;;;;;;;;;;;;;20.21;32.84;97802.44;4918441;29;19941;-73
2021/03/05 10:49:24;;;;;;;;;;;;;;;18.81;34.27;97794.81;4949601;28;19965;-75
2021/03/05 10:51:50;;;;;;;;;;;;;;;19.39;34.28;97800.75;4935949;29;19906;-74
2021/03/05 10:54:15;;;;;;;;;;;;;;;18.68;35.49;97790.47;4937207;29;20062;-73
2021/03/05 10:56:41;;;;;;;;;;;;;;;18.73;36.01;97789.44;4934546;29;19958;-74
2021/03/05 10:59:08;;;;;;;;;;;;;;;19.11;35.05;97793.28;4916361;29;19907;-74
2021/03/05 11:01:33;;;;;;;;;;;;;;;19.23;34.71;97787.66;4916482;29;19915;-72
2021/03/05 11:03:58;;;;;;;;;;;;;;;18.92;35.08;97787.59;4916400;29;19915;-74
2021/03/05 11:06:24;;;;;;;;;;;;;;;19.38;34.08;97782.50;4924043;29;19919;-73
2021/03/05 11:08:49;;;;;;;;;;;;;;;19.53;34.16;97785.31;4935472;29;20982;-75
2021/03/05 11:11:14;;;;;;;;;;;;;;;18.76;35.10;97780.41;4949946;29;20021;-75
2021/03/05 11:13:39;;;;;;;;;;;;;;;17.00;38.25;97777.13;4949422;29;20339;-72
2021/03/05 11:16:05;;;;;;;;;;;;;;;16.99;38.46;97775.50;4899368;29;19919;-73
2021/03/05 11:18:30;;;;;;;;;;;;;;;16.87;39.21;97775.47;4930890;29;19965;-74
2021/03/05 11:20:55;;;;;;;;;;;;;;;16.85;38.79;97766.69;4916059;29;19959;-75
2021/03/05 11:23:20;;;;;;;;;;;;;;;16.89;38.96;97780.66;4915845;29;19915;-74
2021/03/05 11:25:46;;;;;;;;;;;;;;;16.94;38.42;97770.22;4916563;29;19919;-74
2021/03/05 11:28:13;;;;;;;;;;;;;;;17.01;38.30;97770.44;4915950;29;20398;-74
2021/03/05 11:30:39;;;;;;;;;;;;;;;16.57;39.39;97774.00;4916661;29;19926;-75
2021/03/05 11:33:04;;;;;;;;;;;;;;;16.33;40.22;97773.81;4916541;29;20704;-74
2021/03/05 11:35:30;;;;;;;;;;;;;;;16.34;40.29;97773.50;4917455;29;19919;-77
2021/03/05 11:37:55;;;;;;;;;;;;;;;15.88;41.78;97777.22;4916614;29;19919;-73
2021/03/05 11:40:20;;;;;;;;;;;;;;;15.63;41.63;97769.91;4916246;29;19974;-73
2021/03/05 11:42:45;;;;;;;;;;;;;;;15.77;41.47;97762.22;4930756;29;19923;-74
2021/03/05 11:45:11;;;;;;;;;;;;;;;16.07;40.95;97763.78;4916120;29;19950;-73
2021/03/05 11:47:36;;;;;;;;;;;;;;;15.99;40.97;97761.09;4916116;29;19914;-75
2021/03/05 11:50:02;;;;;;;;;;;;;;;16.19;40.09;97763.06;4899084;29;19937;-74
2021/03/05 11:52:28;;;;;;;;;;;;;;;16.44;38.93;97755.72;4908846;29;20365;-74
2021/03/05 11:54:53;;;;;;;;;;;;;;;16.21;39.31;97754.44;4905801;29;19915;-76
2021/03/05 11:57:18;;;;;;;;;;;;;;;16.21;39.94;97757.19;4915880;29;19919;-76
2021/03/05 11:59:43;;;;;;;;;;;;;;;16.00;40.29;97749.72;4915759;29;20282;-73
2021/03/05 12:02:09;;;;;;;;;;;;;;;16.29;39.72;97745.28;4915562;29;19919;-74
2021/03/05 12:04:34;;;;;;;;;;;;;;;16.36;39.25;97748.31;4915389;29;19915;-74
2021/03/05 12:07:00;;;;;;;;;;;;;;;16.26;38.39;97749.50;4916599;29;19920;-73
2021/03/05 12:09:25;;;;;;;;;;;;;;;16.31;38.63;97734.72;4896692;29;19915;-73
2021/03/05 12:11:50;;;;;;;;;;;;;;;16.51;38.70;97728.34;4896785;29;20018;-75
2021/03/05 12:14:15;;;;;;;;;;;;;;;16.46;38.99;97728.56;4896658;29;20273;-75
2021/03/05 12:16:41;;;;;;;;;;;;;;;16.26;39.70;97721.09;4911840;29;19936;-74
2021/03/05 12:19:06;;;;;;;;;;;;;;;16.25;39.67;97727.78;4915848;29;20002;-73
2021/03/05 12:21:31;;;;;;;;;;;;;;;15.98;40.09;97729.13;4898362;29;19907;-75
2021/03/05 12:23:57;;;;;;;;;;;;;;;15.59;41.28;97719.34;4915109;29;20014;-74
2021/03/05 12:26:22;;;;;;;;;;;;;;;15.65;41.13;97720.75;4916310;29;19919;-74
2021/03/05 12:28:48;;;;;;;;;;;;;;;15.73;40.56;97717.13;4916013;29;20443;-74
2021/03/05 12:31:13;;;;;;;;;;;;;;;15.63;41.22;97720.25;4915666;29;19926;-75
2021/03/05 12:33:38;;;;;;;;;;;;;;;15.79;41.20;97721.31;4915342;29;19921;-74